createdAt,value
2018-08-30T00:00:43.913Z,76.50
2018-08-30T00:03:13.501Z,77.10
2018-08-30T00:05:43.250Z,76.80
2018-08-30T00:08:13.082Z,76.80
2018-08-30T00:10:42.679Z,77.40
2018-08-30T00:13:11.814Z,77.20
2018-08-30T00:15:41.074Z,77.00
2018-08-30T00:18:10.258Z,77.60
2018-08-30T00:20:39.377Z,77.20
2018-08-30T00:23:08.559Z,77.10
2018-08-30T00:25:37.638Z,77.20
2018-08-30T00:28:07.546Z,78.90
2018-08-30T00:30:36.865Z,78.10
2018-08-30T00:33:06.328Z,77.90
2018-08-30T00:35:35.579Z,78.70
2018-08-30T00:38:04.921Z,78.30
2018-08-30T00:40:34.192Z,78.40
2018-08-30T00:43:03.471Z,78.80
2018-08-30T00:45:32.665Z,79.30
2018-08-30T00:48:03.019Z,79.10
2018-08-30T00:50:32.077Z,79.30
2018-08-30T00:53:01.097Z,80.30
2018-08-30T00:55:30.298Z,80.60
2018-08-30T00:57:59.487Z,80.40
2018-08-30T01:00:28.583Z,80.50
2018-08-30T01:02:57.829Z,80.70
2018-08-30T01:05:27.117Z,80.80
2018-08-30T01:07:56.159Z,81.30
2018-08-30T01:10:25.178Z,82.00
2018-08-30T01:12:55.390Z,82.00
2018-08-30T01:15:26.322Z,81.70
2018-08-30T01:17:55.991Z,81.30
2018-08-30T01:20:25.337Z,82.80
2018-08-30T01:22:54.888Z,81.70
2018-08-30T01:25:24.013Z,81.90
2018-08-30T01:27:53.363Z,81.80
2018-08-30T01:30:22.394Z,81.80
2018-08-30T01:32:51.715Z,81.80
2018-08-30T01:35:20.921Z,82.30
2018-08-30T01:37:50.022Z,82.50
2018-08-30T01:40:19.068Z,84.50
2018-08-30T01:42:48.433Z,84.10
2018-08-30T01:45:17.589Z,84.70
2018-08-30T01:47:46.815Z,84.70
2018-08-30T01:50:15.890Z,87.10
2018-08-30T01:52:45.104Z,86.20
2018-08-30T01:55:14.342Z,87.60
2018-08-30T01:57:43.617Z,87.10
2018-08-30T02:00:12.785Z,87.00
2018-08-30T02:02:41.998Z,88.90
2018-08-30T02:05:11.342Z,90.30
2018-08-30T02:07:40.505Z,90.50
2018-08-30T02:10:09.787Z,90.30
2018-08-30T02:12:38.913Z,90.30
2018-08-30T02:15:08.128Z,92.30
2018-08-30T02:17:37.331Z,91.60
2018-08-30T02:20:06.981Z,91.50
2018-08-30T02:22:36.090Z,91.30
2018-08-30T02:25:05.509Z,91.50
2018-08-30T02:27:34.607Z,91.70
2018-08-30T02:30:03.935Z,91.60
2018-08-30T02:32:33.101Z,91.70
2018-08-30T02:35:02.185Z,92.10
2018-08-30T02:37:31.494Z,91.70
2018-08-30T02:40:00.611Z,91.80
2018-08-30T02:42:29.734Z,92.10
2018-08-30T02:44:59.071Z,92.50
2018-08-30T02:47:28.429Z,92.60
2018-08-30T02:49:57.777Z,92.80
2018-08-30T02:52:27.010Z,92.90
2018-08-30T02:54:56.310Z,93.00
2018-08-30T02:57:25.513Z,93.10
2018-08-30T02:59:54.673Z,93.20
2018-08-30T03:02:23.810Z,93.40
2018-08-30T03:04:53.118Z,93.60
2018-08-30T03:07:22.294Z,93.80
2018-08-30T03:09:51.476Z,94.00
2018-08-30T03:12:21.120Z,94.20
2018-08-30T03:15:01.121Z,94.20
2018-08-30T03:17:30.452Z,94.20
2018-08-30T03:19:59.713Z,94.20
2018-08-30T03:22:28.863Z,94.20
2018-08-30T03:24:58.087Z,94.10
2018-08-30T03:27:27.446Z,94.10
2018-08-30T03:29:56.700Z,94.40
2018-08-30T03:32:26.171Z,94.20
2018-08-30T03:34:56.253Z,94.40
2018-08-30T03:37:25.457Z,94.60
2018-08-30T03:39:54.886Z,95.20
2018-08-30T03:42:23.962Z,95.00
2018-08-30T03:44:53.186Z,95.30
2018-08-30T03:47:22.225Z,95.00
2018-08-30T03:49:51.515Z,95.20
2018-08-30T03:52:21.801Z,95.60
2018-08-30T03:54:51.054Z,95.60
2018-08-30T03:57:20.394Z,95.60
2018-08-30T03:59:49.603Z,95.80
2018-08-30T04:02:18.978Z,95.80
2018-08-30T04:04:48.156Z,95.60
2018-08-30T04:07:17.264Z,95.70
2018-08-30T04:09:46.664Z,96.50
2018-08-30T04:12:15.769Z,96.20
2018-08-30T04:14:44.817Z,95.70
2018-08-30T04:17:13.981Z,95.90
2018-08-30T04:19:43.273Z,96.00
2018-08-30T04:22:12.564Z,95.90
2018-08-30T04:24:41.724Z,95.90
2018-08-30T04:27:10.950Z,95.70
2018-08-30T04:29:40.109Z,95.80
2018-08-30T04:32:09.135Z,95.70
2018-08-30T04:34:38.424Z,95.80
2018-08-30T04:37:07.698Z,95.70
2018-08-30T04:39:37.058Z,95.90
2018-08-30T04:42:06.415Z,96.00
2018-08-30T04:44:35.510Z,95.80
2018-08-30T04:47:04.833Z,95.80
2018-08-30T04:49:33.893Z,95.70
2018-08-30T04:52:03.165Z,95.70
2018-08-30T04:54:32.437Z,95.40
2018-08-30T04:57:01.644Z,95.10
2018-08-30T04:59:30.899Z,94.80
2018-08-30T05:02:00.038Z,94.40
2018-08-30T05:04:29.590Z,94.40
2018-08-30T05:06:58.722Z,93.90
2018-08-30T05:09:27.998Z,93.80
2018-08-30T05:11:57.050Z,93.60
2018-08-30T05:14:26.152Z,93.30
2018-08-30T05:16:55.498Z,93.00
2018-08-30T05:19:24.705Z,92.80
2018-08-30T05:21:53.883Z,92.70
2018-08-30T05:24:23.142Z,92.90
2018-08-30T05:26:52.274Z,92.50
2018-08-30T05:29:21.886Z,92.70
2018-08-30T05:31:51.112Z,92.80
2018-08-30T05:34:20.334Z,92.30
2018-08-30T05:36:49.609Z,92.10
2018-08-30T05:39:18.953Z,92.00
2018-08-30T05:41:48.226Z,92.30
2018-08-30T05:44:17.402Z,92.00
2018-08-30T05:46:46.923Z,91.70
2018-08-30T05:49:16.256Z,91.70
2018-08-30T05:51:45.607Z,91.60
2018-08-30T05:54:14.856Z,91.60
2018-08-30T05:56:43.926Z,91.50
2018-08-30T05:59:13.142Z,91.30
2018-08-30T06:01:42.355Z,91.30
2018-08-30T06:04:11.434Z,91.20
2018-08-30T06:06:40.528Z,91.00
2018-08-30T06:09:09.789Z,91.00
2018-08-30T06:11:39.101Z,90.70
2018-08-30T06:14:08.282Z,90.60
2018-08-30T06:16:37.451Z,90.10
2018-08-30T06:19:06.886Z,90.30
2018-08-30T06:21:36.115Z,90.10
2018-08-30T06:24:05.398Z,90.40
2018-08-30T06:26:34.658Z,89.80
2018-08-30T06:29:03.909Z,89.40
2018-08-30T06:31:32.967Z,89.10
2018-08-30T06:34:02.375Z,89.00
2018-08-30T06:36:31.690Z,88.20
2018-08-30T06:39:00.908Z,88.20
2018-08-30T06:41:30.157Z,88.20
2018-08-30T06:43:59.810Z,87.80
2018-08-30T06:46:29.080Z,86.90
2018-08-30T06:48:58.312Z,86.90
2018-08-30T06:51:27.509Z,87.00
2018-08-30T06:53:56.686Z,86.80
2018-08-30T06:56:25.852Z,86.90
2018-08-30T06:58:55.005Z,86.90
2018-08-30T07:01:24.243Z,86.40
2018-08-30T07:03:53.453Z,86.30
2018-08-30T07:06:22.760Z,85.60
2018-08-30T07:08:51.951Z,85.30
2018-08-30T07:11:29.852Z,85.60
2018-08-30T07:14:08.384Z,84.70
2018-08-30T07:16:37.950Z,84.00
2018-08-30T07:19:07.079Z,83.30
2018-08-30T07:21:36.298Z,82.80
2018-08-30T07:24:05.437Z,82.10
2018-08-30T07:26:34.614Z,81.50
2018-08-30T07:29:03.851Z,80.40
2018-08-30T07:31:33.103Z,79.20
2018-08-30T07:34:02.386Z,78.90
2018-08-30T07:36:31.610Z,78.20
2018-08-30T07:39:00.785Z,77.10
2018-08-30T07:41:30.162Z,76.90
2018-08-30T07:43:59.431Z,76.70
2018-08-30T07:46:28.474Z,76.50
2018-08-30T07:48:57.657Z,76.70
2018-08-30T07:51:26.957Z,76.80
2018-08-30T07:53:56.154Z,77.00
2018-08-30T07:56:25.274Z,76.80
2018-08-30T07:58:54.342Z,76.20
2018-08-30T08:01:23.618Z,75.90
2018-08-30T08:03:52.851Z,76.30
2018-08-30T08:06:21.978Z,76.20
2018-08-30T08:08:51.129Z,76.20
2018-08-30T08:11:20.348Z,76.20
2018-08-30T08:13:49.587Z,75.20
2018-08-30T08:16:18.738Z,74.50
2018-08-30T08:18:47.885Z,73.70
2018-08-30T08:21:17.013Z,73.40
2018-08-30T08:23:46.361Z,72.90
2018-08-30T08:26:15.457Z,72.20
2018-08-30T08:28:44.736Z,72.20
2018-08-30T08:31:14.098Z,72.20
2018-08-30T08:33:43.150Z,71.10
2018-08-30T08:36:12.347Z,71.20
2018-08-30T08:38:41.529Z,71.10
2018-08-30T08:41:10.838Z,71.10
2018-08-30T08:43:40.114Z,71.00
2018-08-30T08:46:09.232Z,71.30
2018-08-30T08:48:38.508Z,71.60
2018-08-30T08:51:08.122Z,71.20
2018-08-30T08:53:37.367Z,71.20
2018-08-30T08:56:06.667Z,71.30
2018-08-30T08:58:36.081Z,71.40
2018-08-30T09:01:05.237Z,71.20
2018-08-30T09:03:34.518Z,70.90
2018-08-30T09:06:03.622Z,70.20
2018-08-30T09:08:32.934Z,69.60
2018-08-30T09:11:02.170Z,69.60
2018-08-30T09:13:31.566Z,69.60
2018-08-30T09:16:00.825Z,69.60
2018-08-30T09:18:30.164Z,69.20
2018-08-30T09:20:59.605Z,68.80
2018-08-30T09:23:29.085Z,67.30
2018-08-30T09:25:58.345Z,66.70
2018-08-30T09:28:27.392Z,66.70
2018-08-30T09:30:56.549Z,65.80
2018-08-30T09:33:25.637Z,65.80
2018-08-30T09:35:54.952Z,64.70
2018-08-30T09:38:24.153Z,63.60
2018-08-30T09:40:53.396Z,61.90
2018-08-30T09:43:22.635Z,59.20
2018-08-30T09:45:51.764Z,57.20
2018-08-30T09:48:21.014Z,56.10
2018-08-30T09:50:50.070Z,55.40
2018-08-30T09:53:19.225Z,55.60
2018-08-30T09:55:48.547Z,56.20
2018-08-30T09:58:18.138Z,55.70
2018-08-30T10:00:52.528Z,56.10
2018-08-30T10:03:21.746Z,56.60
2018-08-30T10:05:50.998Z,57.80
2018-08-30T10:08:20.361Z,59.10
2018-08-30T10:10:49.633Z,59.50
2018-08-30T10:13:19.010Z,59.80
2018-08-30T10:15:48.168Z,61.10
2018-08-30T10:18:17.470Z,59.10
2018-08-30T10:20:46.659Z,57.60
2018-08-30T10:23:15.841Z,56.10
2018-08-30T10:25:44.953Z,55.70
2018-08-30T10:28:14.536Z,54.70
2018-08-30T10:30:43.817Z,54.50
2018-08-30T10:33:12.982Z,53.90
2018-08-30T10:35:42.372Z,52.90
2018-08-30T10:38:11.635Z,51.40
2018-08-30T10:40:40.961Z,50.60
2018-08-30T10:43:10.267Z,50.90
2018-08-30T10:45:39.482Z,50.90
2018-08-30T10:48:08.762Z,50.90
2018-08-30T10:50:38.038Z,51.20
2018-08-30T10:53:07.219Z,50.80
2018-08-30T10:55:36.371Z,50.80
2018-08-30T10:58:05.532Z,51.40
2018-08-30T11:00:35.601Z,51.30
2018-08-30T11:03:04.911Z,52.40
2018-08-30T11:05:34.125Z,53.40
2018-08-30T11:08:03.344Z,54.10
2018-08-30T11:10:32.622Z,55.10
2018-08-30T11:13:01.885Z,54.90
2018-08-30T11:15:30.820Z,54.70
2018-08-30T11:18:00.126Z,53.00
2018-08-30T11:20:29.500Z,52.40
2018-08-30T11:22:58.705Z,50.90
2018-08-30T11:25:27.891Z,50.00
2018-08-30T11:27:57.167Z,50.10
2018-08-30T11:30:26.402Z,50.90
2018-08-30T11:32:55.725Z,49.80
2018-08-30T11:35:25.026Z,49.20
2018-08-30T11:37:54.393Z,49.10
2018-08-30T11:40:23.717Z,48.10
2018-08-30T11:42:52.851Z,46.80
2018-08-30T11:45:22.140Z,45.30
2018-08-30T11:47:51.418Z,45.70
2018-08-30T11:50:20.684Z,46.20
2018-08-30T11:52:49.873Z,46.70
2018-08-30T11:55:19.170Z,46.50
2018-08-30T11:57:48.418Z,45.10
2018-08-30T12:00:17.689Z,44.80
2018-08-30T12:02:47.201Z,44.80
2018-08-30T12:05:16.448Z,44.70
2018-08-30T12:07:45.991Z,45.20
2018-08-30T12:10:15.239Z,46.10
2018-08-30T12:12:44.445Z,45.90
2018-08-30T12:15:13.613Z,45.50
2018-08-30T12:17:42.658Z,45.40
2018-08-30T12:20:11.853Z,44.90
2018-08-30T12:22:41.101Z,43.90
2018-08-30T12:25:10.253Z,43.70
2018-08-30T12:27:39.606Z,43.00
2018-08-30T12:30:08.898Z,42.70
2018-08-30T12:32:38.035Z,43.60
2018-08-30T12:35:07.288Z,44.80
2018-08-30T12:37:36.365Z,45.50
2018-08-30T12:40:05.647Z,46.00
2018-08-30T12:42:35.137Z,46.90
2018-08-30T12:45:04.364Z,47.50
2018-08-30T12:47:33.810Z,47.20
2018-08-30T12:50:02.907Z,46.40
2018-08-30T12:52:32.028Z,46.30
2018-08-30T12:55:01.199Z,46.40
2018-08-30T12:57:30.954Z,47.60
2018-08-30T13:00:01.425Z,48.20
2018-08-30T13:02:30.615Z,48.80
2018-08-30T13:04:59.697Z,49.10
2018-08-30T13:07:29.018Z,49.80
2018-08-30T13:09:58.344Z,50.20
2018-08-30T13:12:27.504Z,50.90
2018-08-30T13:14:56.704Z,51.70
2018-08-30T13:17:25.839Z,52.70
2018-08-30T13:19:55.263Z,53.30
2018-08-30T13:22:24.509Z,54.10
2018-08-30T13:24:53.668Z,53.90
2018-08-30T13:27:22.753Z,53.80
2018-08-30T13:29:52.003Z,52.90
2018-08-30T13:32:21.341Z,52.10
2018-08-30T13:34:50.591Z,52.20
2018-08-30T13:37:19.369Z,52.20
2018-08-30T13:39:48.713Z,52.70
2018-08-30T13:42:18.201Z,52.90
2018-08-30T13:44:47.350Z,52.90
2018-08-30T13:47:16.684Z,53.70
2018-08-30T13:49:45.568Z,53.70
2018-08-30T13:52:14.910Z,53.80
2018-08-30T13:54:44.195Z,54.20
2018-08-30T13:57:13.282Z,54.90
2018-08-30T13:59:42.624Z,55.90
2018-08-30T14:02:11.576Z,57.50
2018-08-30T14:04:40.975Z,58.40
2018-08-30T14:07:10.043Z,59.50
2018-08-30T14:09:39.310Z,59.60
2018-08-30T14:12:08.739Z,59.90
2018-08-30T14:14:37.921Z,60.70
2018-08-30T14:17:06.888Z,61.20
2018-08-30T14:19:36.152Z,61.90
2018-08-30T14:22:05.496Z,62.30
2018-08-30T14:24:34.554Z,62.90
2018-08-30T14:27:04.059Z,64.20
2018-08-30T14:29:33.250Z,65.10
2018-08-30T14:32:02.665Z,65.90
2018-08-30T14:34:31.939Z,66.60
2018-08-30T14:37:01.263Z,67.70
2018-08-30T14:39:30.384Z,68.20
2018-08-30T14:41:59.365Z,68.50
2018-08-30T14:44:28.710Z,68.90
2018-08-30T14:46:57.794Z,69.80
2018-08-30T14:49:26.949Z,70.80
2018-08-30T14:51:56.123Z,71.30
2018-08-30T14:54:25.364Z,71.60
2018-08-30T14:56:54.662Z,72.10
2018-08-30T14:59:23.914Z,72.30
2018-08-30T15:01:52.898Z,71.40
2018-08-30T15:04:22.266Z,71.10
2018-08-30T15:06:51.601Z,70.40
2018-08-30T15:09:20.849Z,70.10
2018-08-30T15:11:50.064Z,70.30
2018-08-30T15:14:19.285Z,70.80
2018-08-30T15:16:48.566Z,71.20
2018-08-30T15:19:17.846Z,71.30
2018-08-30T15:21:47.075Z,71.80
2018-08-30T15:24:16.286Z,72.50
2018-08-30T15:26:45.876Z,73.40
2018-08-30T15:29:15.187Z,74.10
2018-08-30T15:31:44.427Z,75.00
2018-08-30T15:34:13.818Z,75.70
2018-08-30T15:36:43.009Z,76.30
2018-08-30T15:39:12.542Z,76.90
2018-08-30T15:41:41.895Z,76.60
2018-08-30T15:44:11.678Z,77.10
2018-08-30T15:46:40.770Z,77.40
2018-08-30T15:49:09.945Z,77.40
2018-08-30T15:51:39.097Z,77.30
2018-08-30T15:54:08.389Z,77.10
2018-08-30T15:56:37.622Z,77.60
2018-08-30T15:59:07.083Z,78.30
2018-08-30T16:01:36.157Z,78.60
2018-08-30T16:04:05.373Z,79.10
2018-08-30T16:06:34.597Z,79.90
2018-08-30T16:09:04.050Z,81.20
2018-08-30T16:11:33.264Z,83.30
2018-08-30T16:14:02.439Z,89.40
2018-08-30T16:16:31.665Z,90.70
2018-08-30T16:19:00.927Z,93.90
2018-08-30T16:21:31.209Z,97.80
2018-08-30T16:24:00.497Z,99.90
2018-08-30T16:26:29.863Z,99.90
2018-08-30T16:28:59.155Z,99.90
2018-08-30T16:31:28.329Z,99.90
2018-08-30T16:33:57.573Z,99.90
2018-08-30T16:36:27.002Z,99.90
2018-08-30T16:38:56.193Z,99.90
2018-08-30T16:41:25.359Z,99.90
2018-08-30T16:43:54.582Z,99.90
2018-08-30T16:46:23.876Z,99.90
2018-08-30T16:48:53.315Z,99.90
2018-08-30T16:51:22.469Z,99.90
2018-08-30T16:53:51.646Z,99.90
2018-08-30T16:56:21.053Z,99.90
2018-08-30T16:58:50.322Z,99.90
2018-08-30T17:01:19.481Z,99.90
2018-08-30T17:03:48.666Z,99.90
2018-08-30T17:06:17.892Z,99.90
2018-08-30T17:08:47.215Z,99.90
2018-08-30T17:11:16.572Z,99.90
2018-08-30T17:13:45.773Z,99.90
2018-08-30T17:16:14.916Z,99.90
2018-08-30T17:18:46.335Z,99.90
2018-08-30T17:21:15.617Z,99.90
2018-08-30T17:23:44.843Z,99.90
2018-08-30T17:26:14.076Z,99.90
2018-08-30T17:28:43.332Z,99.90
2018-08-30T17:31:12.624Z,99.90
2018-08-30T17:33:41.834Z,99.90
2018-08-30T17:36:11.039Z,99.90
2018-08-30T17:38:40.341Z,99.90
2018-08-30T17:41:09.567Z,99.90
2018-08-30T17:43:38.762Z,99.90
2018-08-30T17:46:08.056Z,99.90
2018-08-30T17:48:37.335Z,99.90
2018-08-30T17:51:06.726Z,99.90
2018-08-30T17:53:36.451Z,99.90
2018-08-30T17:56:05.724Z,99.90
2018-08-30T17:58:35.000Z,99.90
2018-08-30T18:01:04.368Z,99.90
2018-08-30T18:03:33.490Z,99.90
2018-08-30T18:06:02.838Z,99.90
2018-08-30T18:08:32.045Z,99.90
2018-08-30T18:11:01.330Z,99.90
2018-08-30T18:13:30.626Z,99.90
2018-08-30T18:15:59.779Z,99.90
2018-08-30T18:18:29.093Z,99.90
2018-08-30T18:20:58.441Z,99.90
2018-08-30T18:23:27.824Z,99.90
2018-08-30T18:25:57.121Z,99.90
2018-08-30T18:28:26.466Z,99.90
2018-08-30T18:30:55.689Z,99.90
2018-08-30T18:33:25.014Z,99.90
2018-08-30T18:35:54.321Z,99.90
2018-08-30T18:38:23.650Z,99.90
2018-08-30T18:40:52.885Z,99.90
2018-08-30T18:43:22.002Z,99.90
2018-08-30T18:45:51.597Z,99.90
2018-08-30T18:48:20.694Z,99.90
2018-08-30T18:50:50.003Z,99.90
2018-08-30T18:53:19.215Z,99.90
2018-08-30T18:55:48.559Z,99.90
2018-08-30T18:58:17.695Z,99.90
2018-08-30T19:00:46.920Z,99.90
2018-08-30T19:03:16.122Z,99.90
2018-08-30T19:05:46.322Z,99.90
2018-08-30T19:08:16.408Z,99.90
2018-08-30T19:10:45.665Z,99.90
2018-08-30T19:13:15.096Z,99.90
2018-08-30T19:15:49.342Z,99.90
2018-08-30T19:18:23.566Z,99.90
2018-08-30T19:20:52.698Z,99.90
2018-08-30T19:23:22.765Z,99.90
2018-08-30T19:25:51.913Z,99.90
2018-08-30T19:28:21.081Z,99.90
2018-08-30T19:30:50.318Z,99.90
2018-08-30T19:33:19.571Z,99.90
2018-08-30T19:35:53.738Z,99.90
2018-08-30T19:38:22.936Z,99.90
2018-08-30T19:40:57.217Z,99.90
2018-08-30T19:43:26.866Z,99.90
2018-08-30T19:45:56.181Z,99.90
2018-08-30T19:48:25.549Z,99.90
2018-08-30T19:50:54.806Z,99.90
2018-08-30T19:53:24.114Z,99.90
2018-08-30T19:55:53.333Z,99.90
2018-08-30T19:58:22.568Z,99.90
2018-08-30T20:00:51.939Z,99.90
2018-08-30T20:03:21.230Z,99.90
2018-08-30T20:05:50.613Z,99.90
2018-08-30T20:08:19.801Z,99.90
2018-08-30T20:10:49.194Z,99.90
2018-08-30T20:13:18.722Z,99.90
2018-08-30T20:15:47.984Z,99.90
2018-08-30T20:18:17.135Z,99.90
2018-08-30T20:20:46.314Z,99.90
2018-08-30T20:23:15.651Z,99.90
2018-08-30T20:25:44.879Z,99.90
2018-08-30T20:28:14.106Z,99.90
2018-08-30T20:30:43.401Z,99.90
2018-08-30T20:33:12.621Z,99.90
2018-08-30T20:35:41.889Z,99.90
2018-08-30T20:38:11.417Z,99.90
2018-08-30T20:40:40.626Z,99.90
2018-08-30T20:43:09.872Z,99.90
2018-08-30T20:45:39.083Z,99.90
2018-08-30T20:48:08.507Z,99.90
2018-08-30T20:50:37.627Z,99.90
2018-08-30T20:53:06.938Z,99.90
2018-08-30T20:55:36.057Z,99.90
2018-08-30T20:58:05.366Z,99.90
2018-08-30T21:00:34.598Z,99.90
2018-08-30T21:03:03.994Z,99.90
2018-08-30T21:05:33.313Z,99.90
2018-08-30T21:08:02.601Z,99.90
2018-08-30T21:10:31.969Z,99.90
2018-08-30T21:13:01.259Z,99.90
2018-08-30T21:15:30.538Z,99.90
2018-08-30T21:17:59.683Z,99.90
2018-08-30T21:20:28.833Z,99.90
2018-08-30T21:22:58.098Z,99.90
2018-08-30T21:25:27.253Z,99.90
2018-08-30T21:27:56.479Z,99.90
2018-08-30T21:30:25.797Z,99.90
2018-08-30T21:32:54.953Z,99.90
2018-08-30T21:35:24.241Z,99.90
2018-08-30T21:37:53.653Z,99.90
2018-08-30T21:40:22.890Z,99.90
2018-08-30T21:42:52.189Z,99.90
2018-08-30T21:45:21.335Z,99.90
2018-08-30T21:47:50.537Z,99.90
2018-08-30T21:50:20.376Z,99.90
2018-08-30T21:52:49.615Z,99.90
2018-08-30T21:55:18.930Z,99.90
2018-08-30T21:57:48.049Z,99.90
2018-08-30T22:00:17.398Z,99.90
2018-08-30T22:02:46.545Z,99.90
2018-08-30T22:05:15.802Z,99.90
2018-08-30T22:07:44.966Z,99.90
2018-08-30T22:10:14.253Z,99.90
2018-08-30T22:12:43.453Z,99.90
2018-08-30T22:15:12.593Z,99.90
2018-08-30T22:17:41.847Z,99.90
2018-08-30T22:20:11.108Z,99.90
2018-08-30T22:22:40.171Z,99.90
2018-08-30T22:25:09.473Z,99.90
2018-08-30T22:27:38.569Z,99.90
2018-08-30T22:30:09.936Z,99.90
2018-08-30T22:32:39.482Z,99.90
2018-08-30T22:35:08.758Z,99.90
2018-08-30T22:37:38.001Z,99.90
2018-08-30T22:40:07.675Z,99.90
2018-08-30T22:42:36.942Z,99.90
2018-08-30T22:45:06.580Z,99.90
2018-08-30T22:47:35.858Z,99.90
2018-08-30T22:50:05.423Z,99.90
2018-08-30T22:52:34.817Z,99.90
2018-08-30T22:55:04.173Z,99.90
2018-08-30T22:57:33.498Z,99.90
2018-08-30T23:00:02.554Z,99.90
2018-08-30T23:02:31.922Z,99.90
2018-08-30T23:05:01.158Z,99.90
2018-08-30T23:07:30.458Z,99.90
2018-08-30T23:09:59.830Z,99.90
2018-08-30T23:12:29.177Z,99.90
2018-08-30T23:14:58.365Z,99.90
2018-08-30T23:17:27.549Z,99.90
2018-08-30T23:19:57.092Z,99.90
2018-08-30T23:22:26.459Z,99.90
2018-08-30T23:24:55.728Z,99.90
2018-08-30T23:27:25.022Z,99.90
2018-08-30T23:29:54.320Z,99.90
2018-08-30T23:32:23.541Z,99.90
2018-08-30T23:34:52.957Z,99.90
2018-08-30T23:37:22.353Z,99.90
2018-08-30T23:39:52.249Z,99.90
2018-08-30T23:42:21.518Z,99.90
2018-08-30T23:44:50.742Z,99.90
2018-08-30T23:47:19.981Z,99.90
2018-08-30T23:49:49.417Z,99.90
2018-08-30T23:52:18.683Z,99.90
2018-08-30T23:54:47.935Z,99.90
2018-08-30T23:57:17.161Z,99.90
2018-08-30T23:59:57.163Z,99.90
